Terminal Aerodrome Forecast
Issued by NWS Louisville, KY

Home | Current Version | Previous Version | Text Only | Print | Product List | Glossary On
Versions: 1 2 3 4 5 6 7 8 9 10 11 12 13 14 15 16 17 18 19 20 21 22 23
424
FTUS43 KLMK 291120
TAFSDF
TAF
KSDF 291120Z 2912/3018 22003KT P6SM SCT015 SCT250
     FM291400 25006KT P6SM BKN040 BKN250
     FM300000 VRB03KT P6SM SCT250=

USA.gov is the U.S. government's official web portal to all federal, state and local government web resources and services.